| Date | Time | Temp. (oF) | Dew Point (oF) | Rel. Hum. (%) | Press. (in.) | Wind Dir. | Wind Speed (mph) | Hourly Rainfall (in.) |
|
|---|---|---|---|---|---|---|---|---|---|
| 1 | 07/13 | 00:00 | 72 | 63 | 74 | 29.90 | SW | 0 | 0.00 |
| 2 | 07/12 | 23:00 | 73 | 63 | 72 | 29.90 | SW | 0 | 0.00 |
| 3 | 07/12 | 22:00 | 74 | 63 | 71 | 29.89 | SSW | 0 | 0.00 |
| 4 | 07/12 | 21:00 | 77 | 62 | 62 | 29.88 | SSW | 0 | 0.00 |
| 5 | 07/12 | 20:00 | 80 | 61 | 54 | 29.87 | S | 0 | 0.00 |
| 6 | 07/12 | 19:00 | 82 | 57 | 43 | 29.88 | SW | 3 | 0.00 |
| 7 | 07/12 | 18:00 | 82 | 58 | 46 | 29.89 | SW | 3 | 0.00 |
| 8 | 07/12 | 17:00 | 84 | 60 | 46 | 29.90 | SSE | 4 | 0.00 |
| 9 | 07/12 | 16:00 | 83 | 59 | 46 | 29.92 | S | 4 | 0.00 |
| 10 | 07/12 | 15:00 | 83 | 61 | 48 | 29.94 | SE | 1 | 0.00 |
| 11 | 07/12 | 14:00 | 83 | 59 | 46 | 29.95 | SSW | 8 | 0.00 |
| 12 | 07/12 | 13:00 | 85 | 62 | 48 | 29.97 | NW | 4 | 0.00 |
| 13 | 07/12 | 12:00 | 83 | 62 | 51 | 29.98 | S | 4 | 0.00 |
| 14 | 07/12 | 11:00 | 80 | 63 | 58 | 29.99 | SW | 4 | 0.00 |
| 15 | 07/12 | 10:00 | 77 | 61 | 60 | 29.99 | E | 3 | 0.00 |
| 16 | 07/12 | 09:00 | 74 | 65 | 74 | 30.01 | SSW | 0 | 0.00 |
| 17 | 07/12 | 08:00 | 67 | 62 | 86 | 30.01 | W | 0 | 0.00 |
| 18 | 07/12 | 07:00 | 63 | 59 | 87 | 30.01 | SW | 0 | 0.00 |
| 19 | 07/12 | 06:00 | 61 | 57 | 87 | 30.01 | SSW | 0 | 0.00 |
| 20 | 07/12 | 05:00 | 62 | 58 | 87 | 29.99 | SW | 0 | 0.00 |
| 21 | 07/12 | 04:00 | 64 | 59 | 86 | 29.99 | SW | 0 | 0.00 |
| 22 | 07/12 | 03:00 | 65 | 60 | 86 | 29.99 | SW | 0 | 0.00 |
| 23 | 07/12 | 02:00 | 66 | 61 | 85 | 30.00 | SW | 0 | 0.00 |
| 24 | 07/12 | 01:00 | 67 | 61 | 83 | 30.00 | WSW | 0 | 0.00 |